Gorman, South Dakota
Current Conditions -  °F | °C
As of 4:52 AM on Saturday 25 Oct 2014 (Local Time) from KMBG Reporting Station
Clear Clear  
Wind Chill: 50°   Ceiling: Unl
Heat Index: 50°   Visibility: 10mi
Dew Point: 37°   Wind: 3mph
Humidity: 61%   Direction: 340°NNW
Pressure: 30.08"   Gusts: NA
Location:  45.0613°N, 100.079°W
Report Text: KMBG 250952Z AUTO 34003KT 10SM CLR 10/03 A3008 RMK AO2 SLP184 T01000028
Loading
Personal Weather Stations






























Interactive Weather Map
Tropical Storm Tracking
New forecast layout! Learn more

10-Day Weather Forecast

Advertisements
Track Severe Weather on mobile